sensor_id;sensor_type;location;lat;lon;timestamp;pressure;altitude;pressure_sealevel;temperature;humidity
30463;BME280;17256;43.618;25.336;2023-06-22T00:02:17;100722.25;;;21.38;100.00
30463;BME280;17256;43.618;25.336;2023-06-22T00:04:43;100772.50;;;21.70;100.00
30463;BME280;17256;43.618;25.336;2023-06-22T00:07:09;100602.94;;;20.59;100.00
30463;BME280;17256;43.618;25.336;2023-06-22T00:09:35;100624.72;;;20.62;100.00
30463;BME280;17256;43.618;25.336;2023-06-22T00:12:01;100862.31;;;22.16;100.00
30463;BME280;17256;43.618;25.336;2023-06-22T00:14:27;100654.53;;;20.88;100.00
30463;BME280;17256;43.618;25.336;2023-06-22T00:16:53;100744.06;;;21.41;100.00
30463;BME280;17256;43.618;25.336;2023-06-22T00:19:24;100669.41;;;20.67;100.00
30463;BME280;17256;43.618;25.336;2023-06-22T00:21:50;100624.38;;;20.32;100.00
30463;BME280;17256;43.618;25.336;2023-06-22T00:24:22;100767.69;;;21.28;100.00
30463;BME280;17256;43.618;25.336;2023-06-22T00:26:48;100727.72;;;20.96;100.00
30463;BME280;17256;43.618;25.336;2023-06-22T00:29:14;100717.59;;;20.84;100.00
30463;BME280;17256;43.618;25.336;2023-06-22T00:31:40;100785.38;;;21.07;100.00
30463;BME280;17256;43.618;25.336;2023-06-22T00:34:06;100803.47;;;21.31;100.00
30463;BME280;17256;43.618;25.336;2023-06-22T00:36:34;100644.03;;;20.42;100.00
30463;BME280;17256;43.618;25.336;2023-06-22T00:39:00;100782.19;;;21.25;100.00
30463;BME280;17256;43.618;25.336;2023-06-22T00:41:28;100672.06;;;20.57;100.00
30463;BME280;17256;43.618;25.336;2023-06-22T00:43:54;100707.19;;;20.80;100.00
30463;BME280;17256;43.618;25.336;2023-06-22T00:46:21;100745.16;;;21.08;100.00
30463;BME280;17256;43.618;25.336;2023-06-22T00:48:48;100676.72;;;20.73;100.00
30463;BME280;17256;43.618;25.336;2023-06-22T00:51:14;100773.63;;;21.32;100.00
30463;BME280;17256;43.618;25.336;2023-06-22T00:53:40;100790.41;;;21.37;100.00
30463;BME280;17256;43.618;25.336;2023-06-22T00:56:09;100674.94;;;20.62;100.00
30463;BME280;17256;43.618;25.336;2023-06-22T00:58:38;100698.09;;;20.89;100.00
30463;BME280;17256;43.618;25.336;2023-06-22T01:01:07;100609.53;;;20.26;100.00
30463;BME280;17256;43.618;25.336;2023-06-22T01:03:32;100644.66;;;20.49;100.00
30463;BME280;17256;43.618;25.336;2023-06-22T01:06:10;100706.19;;;20.91;100.00
30463;BME280;17256;43.618;25.336;2023-06-22T01:09:02;100855.91;;;21.83;100.00
30463;BME280;17256;43.618;25.336;2023-06-22T01:11:40;100569.53;;;20.10;100.00
30463;BME280;17256;43.618;25.336;2023-06-22T01:16:58;100645.59;;;20.33;100.00
30463;BME280;17256;43.618;25.336;2023-06-22T01:19:45;100858.09;;;21.81;100.00
30463;BME280;17256;43.618;25.336;2023-06-22T01:22:21;100686.69;;;20.64;100.00
30463;BME280;17256;43.618;25.336;2023-06-22T01:30:11;100692.56;;;20.68;100.00
30463;BME280;17256;43.618;25.336;2023-06-22T01:32:39;100710.00;;;20.53;100.00
30463;BME280;17256;43.618;25.336;2023-06-22T01:35:07;100798.84;;;21.15;100.00
30463;BME280;17256;43.618;25.336;2023-06-22T01:37:34;100651.91;;;20.23;100.00
30463;BME280;17256;43.618;25.336;2023-06-22T01:40:02;100660.44;;;20.11;100.00
30463;BME280;17256;43.618;25.336;2023-06-22T01:42:30;100653.88;;;20.01;100.00
30463;BME280;17256;43.618;25.336;2023-06-22T01:44:56;100654.13;;;19.99;100.00
30463;BME280;17256;43.618;25.336;2023-06-22T01:47:23;100753.88;;;20.57;100.00
30463;BME280;17256;43.618;25.336;2023-06-22T01:49:50;100759.69;;;20.56;100.00
30463;BME280;17256;43.618;25.336;2023-06-22T01:52:17;100733.88;;;20.44;100.00
30463;BME280;17256;43.618;25.336;2023-06-22T01:54:43;100796.19;;;20.76;100.00
30463;BME280;17256;43.618;25.336;2023-06-22T01:57:09;100810.03;;;20.88;100.00
30463;BME280;17256;43.618;25.336;2023-06-22T01:59:49;100750.56;;;20.61;100.00
30463;BME280;17256;43.618;25.336;2023-06-22T02:02:20;100665.06;;;20.06;100.00
30463;BME280;17256;43.618;25.336;2023-06-22T02:05:05;100888.16;;;21.32;100.00
30463;BME280;17256;43.618;25.336;2023-06-22T02:07:34;100686.47;;;20.00;100.00
30463;BME280;17256;43.618;25.336;2023-06-22T02:10:06;100665.41;;;19.65;100.00
30463;BME280;17256;43.618;25.336;2023-06-22T02:12:33;100709.88;;;19.99;100.00
30463;BME280;17256;43.618;25.336;2023-06-22T02:15:01;100665.50;;;19.54;100.00
30463;BME280;17256;43.618;25.336;2023-06-22T02:17:27;100807.38;;;20.54;100.00
30463;BME280;17256;43.618;25.336;2023-06-22T02:19:53;100587.78;;;19.14;100.00
30463;BME280;17256;43.618;25.336;2023-06-22T02:22:19;100840.84;;;20.33;100.00
30463;BME280;17256;43.618;25.336;2023-06-22T02:24:45;100505.38;;;18.24;100.00
30463;BME280;17256;43.618;25.336;2023-06-22T02:27:10;100688.06;;;19.19;100.00
30463;BME280;17256;43.618;25.336;2023-06-22T02:29:36;100731.34;;;19.43;100.00
30463;BME280;17256;43.618;25.336;2023-06-22T02:32:02;100722.34;;;19.36;100.00
30463;BME280;17256;43.618;25.336;2023-06-22T02:34:29;100714.31;;;19.40;100.00
30463;BME280;17256;43.618;25.336;2023-06-22T02:36:54;100758.88;;;19.56;100.00
30463;BME280;17256;43.618;25.336;2023-06-22T02:39:21;100825.34;;;20.03;100.00
30463;BME280;17256;43.618;25.336;2023-06-22T02:41:49;100815.97;;;20.09;100.00
30463;BME280;17256;43.618;25.336;2023-06-22T02:44:15;100825.84;;;20.00;100.00
30463;BME280;17256;43.618;25.336;2023-06-22T02:46:40;100778.88;;;19.70;100.00
30463;BME280;17256;43.618;25.336;2023-06-22T02:49:06;100824.16;;;19.99;100.00
30463;BME280;17256;43.618;25.336;2023-06-22T02:51:35;100716.50;;;19.21;100.00
30463;BME280;17256;43.618;25.336;2023-06-22T02:54:02;100723.75;;;19.22;100.00
30463;BME280;17256;43.618;25.336;2023-06-22T02:56:28;100881.00;;;20.15;100.00
30463;BME280;17256;43.618;25.336;2023-06-22T02:58:58;100981.63;;;20.64;100.00
30463;BME280;17256;43.618;25.336;2023-06-22T03:01:30;100712.88;;;19.03;100.00
30463;BME280;17256;43.618;25.336;2023-06-22T03:04:01;100780.97;;;19.46;100.00
30463;BME280;17256;43.618;25.336;2023-06-22T03:06:27;100758.16;;;19.49;100.00
30463;BME280;17256;43.618;25.336;2023-06-22T03:09:02;100770.16;;;19.50;100.00
30463;BME280;17256;43.618;25.336;2023-06-22T03:11:34;100680.22;;;18.99;100.00
30463;BME280;17256;43.618;25.336;2023-06-22T03:14:00;100814.97;;;19.82;100.00
30463;BME280;17256;43.618;25.336;2023-06-22T03:16:27;100740.94;;;19.52;100.00
30463;BME280;17256;43.618;25.336;2023-06-22T03:18:55;100703.69;;;19.36;100.00
30463;BME280;17256;43.618;25.336;2023-06-22T03:21:22;100768.81;;;19.86;100.00
30463;BME280;17256;43.618;25.336;2023-06-22T03:23:48;100821.09;;;20.17;100.00
30463;BME280;17256;43.618;25.336;2023-06-22T03:26:16;100541.75;;;18.56;100.00
30463;BME280;17256;43.618;25.336;2023-06-22T03:28:42;100969.66;;;20.85;100.00
30463;BME280;17256;43.618;25.336;2023-06-22T03:31:08;100805.09;;;19.91;100.00
30463;BME280;17256;43.618;25.336;2023-06-22T03:33:37;100775.69;;;20.00;100.00
30463;BME280;17256;43.618;25.336;2023-06-22T03:36:03;100836.00;;;20.45;100.00
30463;BME280;17256;43.618;25.336;2023-06-22T03:38:29;100853.13;;;20.75;100.00
30463;BME280;17256;43.618;25.336;2023-06-22T03:40:56;100954.19;;;21.70;100.00
30463;BME280;17256;43.618;25.336;2023-06-22T03:43:23;100612.31;;;19.77;100.00
30463;BME280;17256;43.618;25.336;2023-06-22T03:45:48;100753.59;;;20.59;100.00
30463;BME280;17256;43.618;25.336;2023-06-22T03:48:14;100730.22;;;20.65;100.00
30463;BME280;17256;43.618;25.336;2023-06-22T03:50:53;100733.69;;;20.77;100.00
30463;BME280;17256;43.618;25.336;2023-06-22T03:53:20;100800.25;;;21.17;100.00
30463;BME280;17256;43.618;25.336;2023-06-22T03:55:52;100971.78;;;22.29;100.00
30463;BME280;17256;43.618;25.336;2023-06-22T03:58:19;100988.38;;;22.36;100.00
30463;BME280;17256;43.618;25.336;2023-06-22T04:00:46;100730.47;;;20.91;100.00
30463;BME280;17256;43.618;25.336;2023-06-22T04:03:12;100865.63;;;21.43;100.00
30463;BME280;17256;43.618;25.336;2023-06-22T04:05:39;100797.38;;;21.07;100.00
30463;BME280;17256;43.618;25.336;2023-06-22T04:08:05;100990.53;;;22.29;100.00
30463;BME280;17256;43.618;25.336;2023-06-22T04:10:31;100810.63;;;21.49;100.00
30463;BME280;17256;43.618;25.336;2023-06-22T04:12:57;100863.56;;;21.98;100.00
30463;BME280;17256;43.618;25.336;2023-06-22T04:15:22;100777.03;;;21.39;100.00
30463;BME280;17256;43.618;25.336;2023-06-22T04:17:49;100723.44;;;21.47;100.00
30463;BME280;17256;43.618;25.336;2023-06-22T04:20:16;100653.84;;;21.45;100.00
30463;BME280;17256;43.618;25.336;2023-06-22T04:22:43;100870.06;;;23.08;100.00
30463;BME280;17256;43.618;25.336;2023-06-22T04:25:08;100882.72;;;23.31;100.00
30463;BME280;17256;43.618;25.336;2023-06-22T04:27:34;100817.97;;;23.12;100.00
30463;BME280;17256;43.618;25.336;2023-06-22T04:30:06;100991.94;;;24.39;100.00
30463;BME280;17256;43.618;25.336;2023-06-22T04:32:33;100729.16;;;23.08;100.00
30463;BME280;17256;43.618;25.336;2023-06-22T04:35:02;100826.97;;;24.06;100.00
30463;BME280;17256;43.618;25.336;2023-06-22T04:37:30;100998.53;;;25.20;100.00
30463;BME280;17256;43.618;25.336;2023-06-22T04:39:56;100924.94;;;25.12;100.00
30463;BME280;17256;43.618;25.336;2023-06-22T04:42:21;100833.97;;;24.88;100.00
30463;BME280;17256;43.618;25.336;2023-06-22T04:44:47;100798.34;;;24.78;100.00
30463;BME280;17256;43.618;25.336;2023-06-22T04:47:12;100802.47;;;24.42;100.00
30463;BME280;17256;43.618;25.336;2023-06-22T04:49:38;100799.41;;;24.23;100.00
30463;BME280;17256;43.618;25.336;2023-06-22T04:52:08;100850.00;;;24.88;100.00
30463;BME280;17256;43.618;25.336;2023-06-22T04:54:35;100846.41;;;25.26;100.00
30463;BME280;17256;43.618;25.336;2023-06-22T04:57:07;100835.72;;;24.79;100.00
30463;BME280;17256;43.618;25.336;2023-06-22T04:59:37;100752.84;;;24.17;100.00
30463;BME280;17256;43.618;25.336;2023-06-22T05:02:04;100790.09;;;24.97;100.00
30463;BME280;17256;43.618;25.336;2023-06-22T05:04:31;100985.91;;;26.11;100.00
30463;BME280;17256;43.618;25.336;2023-06-22T05:06:57;100938.25;;;25.90;100.00
30463;BME280;17256;43.618;25.336;2023-06-22T05:09:23;100939.22;;;26.10;100.00
30463;BME280;17256;43.618;25.336;2023-06-22T05:11:50;100806.00;;;25.17;100.00
30463;BME280;17256;43.618;25.336;2023-06-22T05:14:16;100846.94;;;25.33;100.00
30463;BME280;17256;43.618;25.336;2023-06-22T05:16:42;100859.31;;;25.71;100.00
30463;BME280;17256;43.618;25.336;2023-06-22T05:19:08;100985.72;;;26.65;100.00
30463;BME280;17256;43.618;25.336;2023-06-22T05:21:34;100858.78;;;25.69;100.00
30463;BME280;17256;43.618;25.336;2023-06-22T05:24:00;100987.00;;;26.49;100.00
30463;BME280;17256;43.618;25.336;2023-06-22T05:26:28;100898.72;;;25.71;100.00
30463;BME280;17256;43.618;25.336;2023-06-22T05:28:54;100819.91;;;25.03;100.00
30463;BME280;17256;43.618;25.336;2023-06-22T05:31:20;100942.31;;;26.08;100.00
30463;BME280;17256;43.618;25.336;2023-06-22T05:33:46;101033.66;;;26.89;100.00
30463;BME280;17256;43.618;25.336;2023-06-22T05:36:12;100866.06;;;26.33;100.00
30463;BME280;17256;43.618;25.336;2023-06-22T05:38:39;100891.50;;;26.52;100.00
30463;BME280;17256;43.618;25.336;2023-06-22T05:41:04;100936.47;;;26.86;100.00
30463;BME280;17256;43.618;25.336;2023-06-22T05:43:30;100876.75;;;26.84;100.00
30463;BME280;17256;43.618;25.336;2023-06-22T05:45:56;100851.09;;;26.86;98.86
30463;BME280;17256;43.618;25.336;2023-06-22T05:48:21;100901.94;;;27.00;98.58
30463;BME280;17256;43.618;25.336;2023-06-22T05:50:47;100807.91;;;26.48;100.00
30463;BME280;17256;43.618;25.336;2023-06-22T05:53:12;100965.75;;;27.14;100.00
30463;BME280;17256;43.618;25.336;2023-06-22T05:55:38;100919.91;;;27.27;100.00
30463;BME280;17256;43.618;25.336;2023-06-22T05:58:04;100901.34;;;27.21;98.41
30463;BME280;17256;43.618;25.336;2023-06-22T06:00:30;100826.94;;;27.04;95.75
30463;BME280;17256;43.618;25.336;2023-06-22T06:02:56;100935.44;;;27.44;100.00
30463;BME280;17256;43.618;25.336;2023-06-22T06:05:22;100975.31;;;27.37;100.00
30463;BME280;17256;43.618;25.336;2023-06-22T06:07:49;100898.59;;;26.16;100.00
30463;BME280;17256;43.618;25.336;2023-06-22T06:10:14;100895.13;;;26.24;100.00
30463;BME280;17256;43.618;25.336;2023-06-22T06:12:40;100800.00;;;25.97;100.00
30463;BME280;17256;43.618;25.336;2023-06-22T06:15:06;100918.06;;;26.70;100.00
30463;BME280;17256;43.618;25.336;2023-06-22T06:17:32;100941.75;;;27.17;100.00
30463;BME280;17256;43.618;25.336;2023-06-22T06:19:59;101020.44;;;27.99;100.00
30463;BME280;17256;43.618;25.336;2023-06-22T06:22:24;100903.03;;;27.22;100.00
30463;BME280;17256;43.618;25.336;2023-06-22T06:24:50;100964.03;;;28.31;99.66
30463;BME280;17256;43.618;25.336;2023-06-22T06:27:16;101015.78;;;28.92;91.90
30463;BME280;17256;43.618;25.336;2023-06-22T06:29:43;100992.97;;;29.16;90.94
30463;BME280;17256;43.618;25.336;2023-06-22T06:32:11;101012.66;;;29.62;91.19
30463;BME280;17256;43.618;25.336;2023-06-22T06:34:37;101004.16;;;29.34;86.68
30463;BME280;17256;43.618;25.336;2023-06-22T06:37:03;101036.00;;;29.40;87.04
30463;BME280;17256;43.618;25.336;2023-06-22T06:39:28;100951.69;;;29.15;85.81
30463;BME280;17256;43.618;25.336;2023-06-22T06:41:54;100900.16;;;28.63;88.91
30463;BME280;17256;43.618;25.336;2023-06-22T06:44:19;101045.13;;;29.23;87.14
30463;BME280;17256;43.618;25.336;2023-06-22T06:46:45;101039.06;;;29.16;82.83
30463;BME280;17256;43.618;25.336;2023-06-22T06:49:11;100994.84;;;29.20;83.00
30463;BME280;17256;43.618;25.336;2023-06-22T06:51:36;100998.81;;;29.19;80.07
30463;BME280;17256;43.618;25.336;2023-06-22T06:54:02;100925.78;;;28.53;80.59
30463;BME280;17256;43.618;25.336;2023-06-22T06:56:28;100995.88;;;29.24;83.09
30463;BME280;17256;43.618;25.336;2023-06-22T06:58:55;100984.81;;;29.00;81.11
30463;BME280;17256;43.618;25.336;2023-06-22T07:01:21;100934.50;;;28.84;80.48
30463;BME280;17256;43.618;25.336;2023-06-22T07:03:46;100953.28;;;29.07;84.28
30463;BME280;17256;43.618;25.336;2023-06-22T07:06:13;101027.84;;;30.16;79.35
30463;BME280;17256;43.618;25.336;2023-06-22T07:08:38;100986.03;;;30.21;75.52
30463;BME280;17256;43.618;25.336;2023-06-22T07:11:05;100947.81;;;30.33;72.12
30463;BME280;17256;43.618;25.336;2023-06-22T07:13:31;101009.75;;;31.01;70.65
30463;BME280;17256;43.618;25.336;2023-06-22T07:15:56;100988.81;;;30.57;70.30
30463;BME280;17256;43.618;25.336;2023-06-22T07:18:22;101031.41;;;30.66;67.93
30463;BME280;17256;43.618;25.336;2023-06-22T07:20:47;101036.41;;;30.47;71.68
30463;BME280;17256;43.618;25.336;2023-06-22T07:23:13;100948.06;;;30.22;69.61
30463;BME280;17256;43.618;25.336;2023-06-22T07:25:39;100987.88;;;30.71;68.34
30463;BME280;17256;43.618;25.336;2023-06-22T07:28:07;101007.50;;;30.89;66.02
30463;BME280;17256;43.618;25.336;2023-06-22T07:30:33;101007.81;;;30.79;65.66
30463;BME280;17256;43.618;25.336;2023-06-22T07:33:00;101000.47;;;31.18;67.29
30463;BME280;17256;43.618;25.336;2023-06-22T07:35:30;100978.81;;;30.91;65.45
30463;BME280;17256;43.618;25.336;2023-06-22T07:37:56;101043.13;;;31.04;65.34
30463;BME280;17256;43.618;25.336;2023-06-22T07:40:22;101035.53;;;30.91;66.07
30463;BME280;17256;43.618;25.336;2023-06-22T07:42:47;100989.47;;;30.54;66.14
30463;BME280;17256;43.618;25.336;2023-06-22T07:45:17;100907.34;;;29.37;68.30
30463;BME280;17256;43.618;25.336;2023-06-22T07:47:43;100992.13;;;29.92;69.48
30463;BME280;17256;43.618;25.336;2023-06-22T07:50:09;100901.09;;;29.13;70.85
30463;BME280;17256;43.618;25.336;2023-06-22T07:52:35;100938.94;;;29.67;68.70
30463;BME280;17256;43.618;25.336;2023-06-22T07:55:01;101022.31;;;30.11;69.84
30463;BME280;17256;43.618;25.336;2023-06-22T07:57:28;100984.97;;;29.59;71.75
30463;BME280;17256;43.618;25.336;2023-06-22T08:00:03;101026.09;;;29.92;73.31
30463;BME280;17256;43.618;25.336;2023-06-22T08:02:38;101010.47;;;30.31;68.44
30463;BME280;17256;43.618;25.336;2023-06-22T08:05:04;100977.75;;;30.25;67.87
30463;BME280;17256;43.618;25.336;2023-06-22T08:07:32;101029.59;;;31.01;64.86
30463;BME280;17256;43.618;25.336;2023-06-22T08:09:58;100858.84;;;30.42;63.82
30463;BME280;17256;43.618;25.336;2023-06-22T08:12:24;101015.16;;;30.58;62.76
30463;BME280;17256;43.618;25.336;2023-06-22T08:14:49;100979.06;;;30.72;65.51
30463;BME280;17256;43.618;25.336;2023-06-22T08:17:15;100981.06;;;31.11;63.18
30463;BME280;17256;43.618;25.336;2023-06-22T08:19:41;101023.31;;;31.61;60.90
30463;BME280;17256;43.618;25.336;2023-06-22T08:22:07;101021.47;;;31.65;60.14
30463;BME280;17256;43.618;25.336;2023-06-22T08:24:32;101005.00;;;31.76;60.93
30463;BME280;17256;43.618;25.336;2023-06-22T08:26:58;101036.34;;;31.62;60.41
30463;BME280;17256;43.618;25.336;2023-06-22T08:29:24;101008.78;;;31.63;63.26
30463;BME280;17256;43.618;25.336;2023-06-22T08:31:49;101017.91;;;31.99;59.98
30463;BME280;17256;43.618;25.336;2023-06-22T08:34:15;100966.44;;;31.18;60.04
30463;BME280;17256;43.618;25.336;2023-06-22T08:36:40;101010.50;;;31.72;61.92
30463;BME280;17256;43.618;25.336;2023-06-22T08:39:08;100956.34;;;31.51;58.34
30463;BME280;17256;43.618;25.336;2023-06-22T08:41:34;100998.75;;;31.48;61.23
30463;BME280;17256;43.618;25.336;2023-06-22T08:43:59;101017.38;;;31.80;60.53
30463;BME280;17256;43.618;25.336;2023-06-22T08:46:25;100959.69;;;31.53;60.78
30463;BME280;17256;43.618;25.336;2023-06-22T08:48:56;100916.25;;;31.36;56.68
30463;BME280;17256;43.618;25.336;2023-06-22T08:51:24;100963.91;;;31.82;57.23
30463;BME280;17256;43.618;25.336;2023-06-22T08:53:50;100991.81;;;32.32;58.27
30463;BME280;17256;43.618;25.336;2023-06-22T08:56:15;101004.09;;;32.88;55.77
30463;BME280;17256;43.618;25.336;2023-06-22T08:58:41;100955.13;;;32.65;55.02
30463;BME280;17256;43.618;25.336;2023-06-22T09:01:07;100941.44;;;33.05;53.67
30463;BME280;17256;43.618;25.336;2023-06-22T09:03:32;100956.94;;;32.69;52.57
30463;BME280;17256;43.618;25.336;2023-06-22T09:06:01;100978.34;;;32.67;55.31
30463;BME280;17256;43.618;25.336;2023-06-22T09:08:27;100868.53;;;31.72;56.31
30463;BME280;17256;43.618;25.336;2023-06-22T09:10:52;100859.66;;;31.82;55.66
30463;BME280;17256;43.618;25.336;2023-06-22T09:13:18;100904.59;;;31.89;55.11
30463;BME280;17256;43.618;25.336;2023-06-22T09:15:44;101018.50;;;32.74;53.77
30463;BME280;17256;43.618;25.336;2023-06-22T09:18:13;100974.75;;;31.89;55.06
30463;BME280;17256;43.618;25.336;2023-06-22T09:20:39;100975.28;;;31.82;55.22
30463;BME280;17256;43.618;25.336;2023-06-22T09:23:05;100983.09;;;32.46;55.64
30463;BME280;17256;43.618;25.336;2023-06-22T09:25:30;100940.97;;;32.39;55.29
30463;BME280;17256;43.618;25.336;2023-06-22T09:27:56;100994.66;;;32.49;55.12
30463;BME280;17256;43.618;25.336;2023-06-22T09:30:22;101022.63;;;33.02;53.54
30463;BME280;17256;43.618;25.336;2023-06-22T09:32:47;100815.22;;;31.87;52.14
30463;BME280;17256;43.618;25.336;2023-06-22T09:35:13;101010.59;;;33.35;51.87
30463;BME280;17256;43.618;25.336;2023-06-22T09:37:39;100983.25;;;33.43;52.07
30463;BME280;17256;43.618;25.336;2023-06-22T09:40:06;100955.50;;;33.31;50.44
30463;BME280;17256;43.618;25.336;2023-06-22T09:42:37;100997.25;;;33.56;52.64
30463;BME280;17256;43.618;25.336;2023-06-22T09:45:04;100962.13;;;33.52;50.81
30463;BME280;17256;43.618;25.336;2023-06-22T09:47:30;100976.03;;;33.75;49.66
30463;BME280;17256;43.618;25.336;2023-06-22T09:49:55;100975.50;;;34.02;49.08
30463;BME280;17256;43.618;25.336;2023-06-22T09:52:21;100966.34;;;33.67;49.63
30463;BME280;17256;43.618;25.336;2023-06-22T09:54:47;101018.09;;;33.48;48.57
30463;BME280;17256;43.618;25.336;2023-06-22T09:57:12;100969.63;;;33.19;50.33
30463;BME280;17256;43.618;25.336;2023-06-22T09:59:38;101005.81;;;33.77;48.55
30463;BME280;17256;43.618;25.336;2023-06-22T10:02:07;100956.09;;;33.16;49.46
30463;BME280;17256;43.618;25.336;2023-06-22T10:04:36;100969.75;;;33.31;50.43
30463;BME280;17256;43.618;25.336;2023-06-22T10:07:02;101003.84;;;33.69;49.22
30463;BME280;17256;43.618;25.336;2023-06-22T10:09:28;100938.03;;;32.82;48.14
30463;BME280;17256;43.618;25.336;2023-06-22T10:11:53;100978.00;;;32.77;48.47
30463;BME280;17256;43.618;25.336;2023-06-22T10:14:19;100969.00;;;33.13;46.95
30463;BME280;17256;43.618;25.336;2023-06-22T10:16:45;100955.09;;;32.82;47.14
30463;BME280;17256;43.618;25.336;2023-06-22T10:19:11;100953.66;;;33.06;46.28
30463;BME280;17256;43.618;25.336;2023-06-22T10:21:36;100973.66;;;33.18;46.33
30463;BME280;17256;43.618;25.336;2023-06-22T10:24:03;100821.59;;;32.48;45.23
30463;BME280;17256;43.618;25.336;2023-06-22T10:26:35;101001.19;;;32.96;45.33
30463;BME280;17256;43.618;25.336;2023-06-22T10:29:04;100952.75;;;32.67;45.99
30463;BME280;17256;43.618;25.336;2023-06-22T10:31:30;100947.63;;;33.07;45.68
30463;BME280;17256;43.618;25.336;2023-06-22T10:33:55;100907.72;;;33.16;46.13
30463;BME280;17256;43.618;25.336;2023-06-22T10:36:22;100917.44;;;33.44;45.54
30463;BME280;17256;43.618;25.336;2023-06-22T10:38:48;100932.34;;;33.12;44.83
30463;BME280;17256;43.618;25.336;2023-06-22T10:41:14;100958.25;;;33.19;46.19
30463;BME280;17256;43.618;25.336;2023-06-22T10:43:40;100948.94;;;33.89;46.48
30463;BME280;17256;43.618;25.336;2023-06-22T10:46:06;100942.03;;;34.11;44.58
30463;BME280;17256;43.618;25.336;2023-06-22T10:48:32;100951.59;;;34.28;44.13
30463;BME280;17256;43.618;25.336;2023-06-22T10:50:57;100941.72;;;34.46;44.97
30463;BME280;17256;43.618;25.336;2023-06-22T10:53:23;100959.72;;;34.83;44.86
30463;BME280;17256;43.618;25.336;2023-06-22T10:55:48;100954.50;;;34.73;44.66
30463;BME280;17256;43.618;25.336;2023-06-22T10:58:14;100942.72;;;34.74;44.46
30463;BME280;17256;43.618;25.336;2023-06-22T11:00:40;100946.56;;;33.91;45.77
30463;BME280;17256;43.618;25.336;2023-06-22T11:03:05;100927.75;;;33.99;46.65
30463;BME280;17256;43.618;25.336;2023-06-22T11:05:31;100921.94;;;34.08;45.98
30463;BME280;17256;43.618;25.336;2023-06-22T11:11:56;100940.31;;;34.52;46.08
30463;BME280;17256;43.618;25.336;2023-06-22T11:14:23;100854.31;;;33.84;46.13
30463;BME280;17256;43.618;25.336;2023-06-22T11:16:48;100913.06;;;33.68;45.51
30463;BME280;17256;43.618;25.336;2023-06-22T11:19:14;100921.84;;;34.16;44.60
30463;BME280;17256;43.618;25.336;2023-06-22T11:21:40;100969.09;;;34.71;44.61
30463;BME280;17256;43.618;25.336;2023-06-22T11:24:06;100909.59;;;34.04;44.12
30463;BME280;17256;43.618;25.336;2023-06-22T11:26:31;100965.16;;;34.31;45.51
30463;BME280;17256;43.618;25.336;2023-06-22T11:28:58;100937.31;;;34.48;45.39
30463;BME280;17256;43.618;25.336;2023-06-22T11:31:24;100941.22;;;34.44;44.91
30463;BME280;17256;43.618;25.336;2023-06-22T11:33:50;100954.53;;;34.19;44.18
30463;BME280;17256;43.618;25.336;2023-06-22T11:36:16;100934.63;;;33.98;44.05
30463;BME280;17256;43.618;25.336;2023-06-22T11:38:42;100930.88;;;33.85;44.66
30463;BME280;17256;43.618;25.336;2023-06-22T11:41:09;100960.31;;;34.10;44.79
30463;BME280;17256;43.618;25.336;2023-06-22T11:43:35;100901.25;;;33.36;46.07
30463;BME280;17256;43.618;25.336;2023-06-22T11:46:03;100963.13;;;34.31;45.70
30463;BME280;17256;43.618;25.336;2023-06-22T11:48:29;100949.63;;;34.73;43.40
30463;BME280;17256;43.618;25.336;2023-06-22T11:50:55;100906.03;;;34.07;44.12
30463;BME280;17256;43.618;25.336;2023-06-22T11:53:21;100946.69;;;34.16;43.80
30463;BME280;17256;43.618;25.336;2023-06-22T11:55:47;100895.47;;;33.45;45.22
30463;BME280;17256;43.618;25.336;2023-06-22T11:58:14;100923.50;;;33.84;44.33
30463;BME280;17256;43.618;25.336;2023-06-22T12:00:40;100906.31;;;33.93;46.50
30463;BME280;17256;43.618;25.336;2023-06-22T12:03:07;100901.13;;;34.28;45.07
30463;BME280;17256;43.618;25.336;2023-06-22T12:05:33;100862.81;;;34.17;44.79
30463;BME280;17256;43.618;25.336;2023-06-22T12:07:58;100915.59;;;34.23;44.53
30463;BME280;17256;43.618;25.336;2023-06-22T12:10:25;100943.22;;;34.43;43.42
30463;BME280;17256;43.618;25.336;2023-06-22T12:12:51;100924.44;;;34.09;45.05
30463;BME280;17256;43.618;25.336;2023-06-22T12:15:17;100915.22;;;33.71;44.44
30463;BME280;17256;43.618;25.336;2023-06-22T12:17:42;100879.78;;;33.39;45.42
30463;BME280;17256;43.618;25.336;2023-06-22T12:20:09;100934.28;;;34.00;45.09
30463;BME280;17256;43.618;25.336;2023-06-22T12:22:34;100930.84;;;34.06;44.90
30463;BME280;17256;43.618;25.336;2023-06-22T12:25:01;100884.09;;;33.45;45.09
30463;BME280;17256;43.618;25.336;2023-06-22T12:27:27;100920.03;;;33.79;45.37
30463;BME280;17256;43.618;25.336;2023-06-22T12:29:52;100909.19;;;33.93;44.69
30463;BME280;17256;43.618;25.336;2023-06-22T12:32:18;100878.63;;;33.60;44.30
30463;BME280;17256;43.618;25.336;2023-06-22T12:34:44;100903.06;;;34.03;46.39
30463;BME280;17256;43.618;25.336;2023-06-22T12:37:10;100910.09;;;34.18;45.02
30463;BME280;17256;43.618;25.336;2023-06-22T12:39:35;100869.16;;;33.69;45.44
30463;BME280;17256;43.618;25.336;2023-06-22T12:42:01;100855.75;;;33.90;45.22
30463;BME280;17256;43.618;25.336;2023-06-22T12:44:27;100861.75;;;34.09;45.15
30463;BME280;17256;43.618;25.336;2023-06-22T12:46:52;100909.31;;;34.30;43.36